Ana Sayfa
METAR-TAF:

METAR-TAF

Havaalanları :

Senendec Havaalanı

Senendec, İran

Enlem: 35-20N, Boylam: 047-00E, yükseklik: 1373 m

Güncel hava durumu gözlemi

Rapor saat 04:00 UTC de 44 dakika önce yapıldı.
Sakin rüzgar
Sıcaklık 8°C
Nem 71%
Basınç 1014 hPa
Görüş mesafesi 10 km veya daha fazla
3500 ft yükseklikte az bulutlu

METAR: OICS 190400Z 00000KT 9999 FEW035 08/03 Q1013 A2993

Saat: 09:14 (04:44 UTC)


TAF: eksik

4.000'den fazla havaalanı için hava durumu gözlemleri ve tahminleri (METAR ve TAF raporları).

Kullanılabilir istasyonlar harita üzerinde sarı ve kırmızı noktalarla gösterilir.

İstasyonun adını görmek için fareyi noktanın üzerinde gezdirin.

Sonrasında hava gözlem ve tahminlerini görmek için tıklayın.

Haritayı değiştirmek için: yaklaştırmak için siyah artı işaretli yeşil düğmeye ve uzaklaştırmak için de eksi işaretli düğmeye hızla tıklayın; bitişik haritalar için yeşil okları kullanın.


METAR-TAF: